createdAt,value
2019-03-31T08:22:09.668Z,19.42
2019-03-31T08:24:45.801Z,21.55
2019-03-31T08:27:16.816Z,21.33
2019-03-31T08:29:55.408Z,21.33
2019-03-31T08:32:19.274Z,22.22
2019-03-31T08:34:49.676Z,20.17
2019-03-31T08:37:20.056Z,19.10
2019-03-31T08:39:50.452Z,18.60
2019-03-31T08:42:20.821Z,19.35
2019-03-31T08:44:51.220Z,20.02
2019-03-31T08:47:21.757Z,19.48
2019-03-31T08:49:52.149Z,18.65
2019-03-31T08:52:22.528Z,17.55
2019-03-31T08:54:52.949Z,15.58
2019-03-31T08:57:23.324Z,15.70
2019-03-31T08:59:53.719Z,15.55
2019-03-31T09:02:25.722Z,14.65
2019-03-31T09:04:56.126Z,13.88
2019-03-31T09:07:26.509Z,12.73
2019-03-31T09:09:56.900Z,12.45
2019-03-31T09:12:27.273Z,12.23
2019-03-31T09:14:57.662Z,13.58
2019-03-31T09:17:28.035Z,12.65
2019-03-31T09:19:58.440Z,12.47
2019-03-31T09:22:28.806Z,11.15
2019-03-31T09:24:59.196Z,10.35
2019-03-31T09:27:29.563Z,9.98
2019-03-31T09:29:59.950Z,10.30
2019-03-31T09:32:30.317Z,10.15
2019-03-31T09:35:00.713Z,9.68
2019-03-31T09:37:31.080Z,8.95
2019-03-31T09:40:01.468Z,9.98
2019-03-31T09:42:31.831Z,9.90
2019-03-31T09:45:02.222Z,9.40
2019-03-31T09:47:32.586Z,10.18
2019-03-31T09:50:03.353Z,9.83
2019-03-31T09:52:33.711Z,9.85
2019-03-31T09:55:06.647Z,10.55
2019-03-31T09:57:37.030Z,9.40
2019-03-31T10:00:17.632Z,8.98
2019-03-31T10:02:48.008Z,8.43
2019-03-31T10:05:18.839Z,8.15
2019-03-31T10:07:49.203Z,8.55
2019-03-31T10:10:33.277Z,8.95
2019-03-31T10:13:03.641Z,7.75
2019-03-31T10:15:34.051Z,8.13
2019-03-31T10:18:04.402Z,8.28
2019-03-31T10:20:35.217Z,8.75
2019-03-31T10:23:06.027Z,7.85
2019-03-31T10:25:40.497Z,6.28
2019-03-31T10:28:10.830Z,4.92
2019-03-31T10:30:42.112Z,4.25
2019-03-31T10:33:12.476Z,4.22
2019-03-31T10:35:42.939Z,3.45
2019-03-31T10:38:13.314Z,5.62
2019-03-31T10:40:44.099Z,5.67
2019-03-31T10:43:14.466Z,6.60
2019-03-31T10:45:44.863Z,5.97
2019-03-31T10:48:20.967Z,6.37
2019-03-31T10:50:47.473Z,5.60
2019-03-31T10:53:18.058Z,4.53
2019-03-31T10:55:48.450Z,5.10
2019-03-31T10:58:18.992Z,4.97
2019-03-31T11:00:49.384Z,5.10
2019-03-31T11:03:20.086Z,5.70
2019-03-31T11:05:50.474Z,5.97
2019-03-31T11:08:20.829Z,5.37
2019-03-31T11:10:51.215Z,6.47
2019-03-31T11:13:21.661Z,6.12
2019-03-31T11:15:52.053Z,5.67
2019-03-31T11:18:22.536Z,5.20
2019-03-31T11:20:53.123Z,4.85
2019-03-31T11:23:25.403Z,4.58
2019-03-31T11:25:56.162Z,5.58
2019-03-31T11:28:26.532Z,5.08
2019-03-31T11:30:57.256Z,4.97
2019-03-31T11:33:27.694Z,5.40
2019-03-31T11:35:58.185Z,4.78
2019-03-31T11:38:28.642Z,5.05
2019-03-31T11:40:59.025Z,6.05
2019-03-31T11:43:29.403Z,5.60
2019-03-31T11:45:59.793Z,4.28
2019-03-31T11:48:30.154Z,3.85
2019-03-31T11:51:00.619Z,3.60
2019-03-31T11:53:31.014Z,3.77
2019-03-31T11:56:01.390Z,3.87
2019-03-31T11:58:35.866Z,3.70
2019-03-31T12:01:06.210Z,3.40
2019-03-31T12:03:36.671Z,3.55
2019-03-31T12:06:11.383Z,3.67
2019-03-31T12:08:41.971Z,3.10
2019-03-31T12:11:12.338Z,3.72
2019-03-31T12:13:42.728Z,3.27
2019-03-31T12:16:13.112Z,3.85
2019-03-31T12:18:43.489Z,3.70
2019-03-31T12:21:13.851Z,3.83
2019-03-31T12:23:44.226Z,3.85
2019-03-31T12:26:14.584Z,3.65
2019-03-31T12:28:44.974Z,3.80
2019-03-31T12:31:27.928Z,3.33
2019-03-31T12:33:59.373Z,3.42
2019-03-31T12:36:29.936Z,2.35
2019-03-31T12:39:00.348Z,1.87
2019-03-31T12:41:30.865Z,2.00
2019-03-31T12:44:01.240Z,1.82
2019-03-31T12:46:31.600Z,1.90
2019-03-31T12:49:02.318Z,1.95
2019-03-31T12:51:32.669Z,1.72
2019-03-31T12:54:03.060Z,1.60
2019-03-31T12:56:33.414Z,1.60
2019-03-31T12:59:04.050Z,1.47
2019-03-31T13:01:34.406Z,1.70
2019-03-31T13:04:05.051Z,1.15
2019-03-31T13:06:35.505Z,1.40
2019-03-31T13:09:08.522Z,1.57
2019-03-31T13:11:40.420Z,1.52
2019-03-31T13:14:10.926Z,1.40
2019-03-31T13:16:41.277Z,1.95
2019-03-31T13:19:11.722Z,1.40
2019-03-31T13:21:42.060Z,1.20
2019-03-31T13:24:12.620Z,1.27
2019-03-31T13:26:43.081Z,1.07
2019-03-31T13:29:13.515Z,1.67
2019-03-31T13:31:43.884Z,1.30
2019-03-31T13:34:15.316Z,1.55
2019-03-31T13:36:45.653Z,1.60
2019-03-31T13:39:16.135Z,1.55
2019-03-31T13:41:47.192Z,1.50
2019-03-31T13:44:18.078Z,1.27
2019-03-31T13:46:48.470Z,1.40
2019-03-31T13:49:18.867Z,2.17
2019-03-31T13:51:49.219Z,1.30
2019-03-31T13:54:19.604Z,1.90
2019-03-31T13:56:50.668Z,1.45
2019-03-31T13:59:21.232Z,1.55
2019-03-31T14:01:51.599Z,1.70
2019-03-31T14:04:21.980Z,1.10
2019-03-31T14:06:52.334Z,1.10
2019-03-31T14:09:22.721Z,1.27
2019-03-31T14:11:53.133Z,1.50
2019-03-31T14:14:23.528Z,1.15
2019-03-31T14:16:53.888Z,1.27
2019-03-31T14:19:24.332Z,1.20
2019-03-31T14:21:54.748Z,1.02
2019-03-31T14:24:26.970Z,1.35
2019-03-31T14:26:57.187Z,1.00
2019-03-31T14:29:27.569Z,1.42
2019-03-31T14:31:57.923Z,1.47
2019-03-31T14:34:28.338Z,1.30
2019-03-31T14:36:58.699Z,1.35
2019-03-31T14:39:30.150Z,1.10
2019-03-31T14:42:00.511Z,1.22
2019-03-31T14:44:30.905Z,1.60
2019-03-31T14:47:01.255Z,1.25
2019-03-31T14:49:31.648Z,1.05
2019-03-31T14:52:02.012Z,1.20
2019-03-31T14:54:32.394Z,1.37
2019-03-31T14:57:05.777Z,0.88
2019-03-31T14:59:34.846Z,1.37
2019-03-31T15:02:05.199Z,1.25
2019-03-31T15:04:35.580Z,1.07
2019-03-31T15:07:05.949Z,0.95
2019-03-31T15:09:36.327Z,1.15
2019-03-31T15:12:06.695Z,0.93
2019-03-31T15:14:37.085Z,1.20
2019-03-31T15:17:07.440Z,0.88
2019-03-31T15:19:37.820Z,1.15
2019-03-31T15:22:08.180Z,1.62
2019-03-31T15:24:38.581Z,1.22
2019-03-31T15:27:08.926Z,0.82
2019-03-31T15:29:39.320Z,1.85
2019-03-31T15:32:09.682Z,1.15
2019-03-31T15:34:40.062Z,1.12
2019-03-31T15:37:10.424Z,1.37
2019-03-31T15:39:40.813Z,1.00
2019-03-31T15:42:11.178Z,1.27
2019-03-31T15:44:41.566Z,0.95
2019-03-31T15:47:11.962Z,1.10
2019-03-31T15:49:42.326Z,1.40
2019-03-31T15:52:12.711Z,1.07
2019-03-31T15:54:43.079Z,0.90
2019-03-31T15:57:13.462Z,1.10
2019-03-31T15:59:53.839Z,1.00
2019-03-31T16:02:25.864Z,1.10
2019-03-31T16:04:56.249Z,1.15
2019-03-31T16:07:26.641Z,0.88
2019-03-31T16:09:57.005Z,0.90
2019-03-31T16:12:27.404Z,0.88
2019-03-31T16:14:57.764Z,0.70
2019-03-31T16:17:28.154Z,1.00
2019-03-31T16:19:58.510Z,1.35
2019-03-31T16:22:28.916Z,1.00
2019-03-31T16:25:00.918Z,1.10
2019-03-31T16:27:31.857Z,0.90
2019-03-31T16:30:02.282Z,0.68
2019-03-31T16:32:32.880Z,0.80
2019-03-31T16:35:03.740Z,1.45
2019-03-31T16:37:34.703Z,1.10
2019-03-31T16:40:07.854Z,0.82
2019-03-31T16:42:38.517Z,0.65
2019-03-31T16:45:09.066Z,0.72
2019-03-31T16:47:39.990Z,1.22
2019-03-31T16:50:11.323Z,1.12
2019-03-31T16:52:54.076Z,1.12
2019-03-31T16:55:24.724Z,1.07
2019-03-31T16:57:55.615Z,1.00
2019-03-31T17:00:26.151Z,0.68
2019-03-31T17:02:57.013Z,0.90
2019-03-31T17:05:27.707Z,1.00
2019-03-31T17:07:58.281Z,0.90
2019-03-31T17:10:29.191Z,1.00
2019-03-31T17:12:59.759Z,0.78
2019-03-31T17:15:30.246Z,0.80
2019-03-31T17:18:01.516Z,0.75
2019-03-31T17:20:33.738Z,0.90
2019-03-31T17:23:04.260Z,0.90
2019-03-31T17:25:34.802Z,0.70
2019-03-31T17:28:05.632Z,0.90
2019-03-31T17:30:36.193Z,0.80
2019-03-31T17:33:06.966Z,0.80
2019-03-31T17:35:38.869Z,1.67
2019-03-31T17:38:09.407Z,1.02
2019-03-31T17:40:40.046Z,1.42
2019-03-31T17:43:10.858Z,1.37
2019-03-31T17:45:41.419Z,1.67
2019-03-31T17:48:12.044Z,1.47
2019-03-31T17:50:44.128Z,1.35
2019-03-31T17:53:14.935Z,1.55
2019-03-31T17:55:45.353Z,1.37
2019-03-31T17:58:16.201Z,1.00
2019-03-31T18:00:46.605Z,1.17
2019-03-31T18:03:17.191Z,1.30
2019-03-31T18:05:48.857Z,1.80
2019-03-31T18:08:19.725Z,1.12
2019-03-31T18:10:50.211Z,1.50
2019-03-31T18:13:21.046Z,1.17
2019-03-31T18:15:51.712Z,1.47
2019-03-31T18:18:22.298Z,1.47
2019-03-31T18:20:53.073Z,1.40
2019-03-31T18:23:23.587Z,1.67
2019-03-31T18:25:54.005Z,1.30
2019-03-31T18:28:24.376Z,1.62
2019-03-31T18:30:54.730Z,1.27
2019-03-31T18:33:25.111Z,1.17
2019-03-31T18:35:55.709Z,1.75
2019-03-31T18:38:26.083Z,1.50
2019-03-31T18:40:56.440Z,1.50
2019-03-31T18:43:26.809Z,1.55
2019-03-31T18:45:57.349Z,2.05
2019-03-31T18:48:27.720Z,2.70
2019-03-31T18:50:58.159Z,3.47
2019-03-31T18:53:32.679Z,3.15
2019-03-31T18:56:13.501Z,3.00
2019-03-31T18:58:45.485Z,3.22
2019-03-31T19:01:33.799Z,2.50
2019-03-31T19:04:12.026Z,3.30
2019-03-31T19:06:44.031Z,2.65
2019-03-31T19:09:22.024Z,2.52
2019-03-31T19:12:10.616Z,2.25
2019-03-31T19:14:45.336Z,1.85
2019-03-31T19:17:34.642Z,1.60
2019-03-31T19:20:19.241Z,1.52
2019-03-31T19:22:51.237Z,1.32
2019-03-31T19:25:32.239Z,2.08
2019-03-31T19:28:10.422Z,2.33
2019-03-31T19:31:00.690Z,1.60
2019-03-31T19:33:48.909Z,1.50
2019-03-31T19:36:20.923Z,2.05
2019-03-31T19:39:09.474Z,2.17
2019-03-31T19:41:41.589Z,2.20
2019-03-31T19:44:29.906Z,2.10
2019-03-31T19:47:01.914Z,2.70
2019-03-31T19:49:36.855Z,3.17
2019-03-31T19:52:18.978Z,2.62
2019-03-31T19:54:57.088Z,2.85
2019-03-31T19:57:35.414Z,1.98
2019-03-31T20:00:09.950Z,2.00
2019-03-31T20:02:45.261Z,1.92
2019-03-31T20:05:23.501Z,1.80
2019-03-31T20:08:01.564Z,1.57
2019-03-31T20:10:33.622Z,1.30
2019-03-31T20:13:06.556Z,2.02
2019-03-31T20:15:38.573Z,1.72
2019-03-31T20:18:27.000Z,1.90
2019-03-31T20:21:31.862Z,1.65
2019-03-31T20:24:10.407Z,1.85
2019-03-31T20:26:42.851Z,1.50
2019-03-31T20:29:14.843Z,2.12
2019-03-31T20:31:46.863Z,2.15
2019-03-31T20:34:27.589Z,1.60
2019-03-31T20:37:15.800Z,1.85
2019-03-31T20:39:56.432Z,1.30
2019-03-31T20:42:24.190Z,1.47
2019-03-31T20:44:54.590Z,2.12
2019-03-31T20:47:24.977Z,1.57
2019-03-31T20:49:55.321Z,1.87
2019-03-31T20:52:25.735Z,1.55
2019-03-31T20:54:56.087Z,1.52
2019-03-31T20:57:26.471Z,1.82
2019-03-31T20:59:56.819Z,1.70
2019-03-31T21:02:27.194Z,2.08
2019-03-31T21:04:57.545Z,1.37
2019-03-31T21:07:28.885Z,1.70
2019-03-31T21:09:59.233Z,1.42
2019-03-31T21:12:29.636Z,1.72
2019-03-31T21:14:59.987Z,2.00
2019-03-31T21:17:30.382Z,2.00
2019-03-31T21:20:00.760Z,1.80
2019-03-31T21:22:31.115Z,2.00
2019-03-31T21:25:01.466Z,1.92
2019-03-31T21:27:31.853Z,2.42
2019-03-31T21:30:02.207Z,4.50
2019-03-31T21:32:32.576Z,3.40
2019-03-31T21:35:03.131Z,3.47
2019-03-31T21:37:33.488Z,3.22
2019-03-31T21:40:05.909Z,2.30
2019-03-31T21:42:36.265Z,1.98
2019-03-31T21:45:07.171Z,2.25
2019-03-31T21:47:37.516Z,2.60
2019-03-31T21:50:09.112Z,2.15
2019-03-31T21:52:39.459Z,1.52
2019-03-31T21:55:09.900Z,1.37
2019-03-31T21:57:40.255Z,1.95
2019-03-31T22:00:12.520Z,2.10
2019-03-31T22:02:44.476Z,1.70
2019-03-31T22:05:14.860Z,1.80
2019-03-31T22:07:45.205Z,1.60
2019-03-31T22:10:15.576Z,1.92
2019-03-31T22:12:46.016Z,1.47
2019-03-31T22:15:16.718Z,1.95
2019-03-31T22:17:47.220Z,2.10
2019-03-31T22:20:17.704Z,1.70
2019-03-31T22:22:48.064Z,1.70
2019-03-31T22:25:18.501Z,1.85
2019-03-31T22:27:48.791Z,2.42
2019-03-31T22:30:19.170Z,1.98
2019-03-31T22:32:49.515Z,2.30
2019-03-31T22:35:19.883Z,2.30
2019-03-31T22:37:50.238Z,1.98
2019-03-31T22:40:20.605Z,2.30
2019-03-31T22:42:50.952Z,2.37
2019-03-31T22:45:21.333Z,2.17
2019-03-31T22:47:51.690Z,2.40
2019-03-31T22:50:22.073Z,2.50
2019-03-31T22:52:52.428Z,2.35
2019-03-31T22:55:22.796Z,2.20
2019-03-31T22:57:53.150Z,2.10
2019-03-31T23:00:25.177Z,2.33
2019-03-31T23:02:55.520Z,1.87
2019-03-31T23:05:25.890Z,2.30
2019-03-31T23:07:56.249Z,1.98
2019-03-31T23:10:26.625Z,1.60
2019-03-31T23:12:56.975Z,2.15
2019-03-31T23:15:27.351Z,1.72
2019-03-31T23:17:57.700Z,2.02
2019-03-31T23:20:28.075Z,2.10
2019-03-31T23:22:58.432Z,2.20
2019-03-31T23:25:28.804Z,2.08
2019-03-31T23:27:59.153Z,1.90
2019-03-31T23:30:29.537Z,2.45
2019-03-31T23:32:59.884Z,2.25
2019-03-31T23:35:30.262Z,2.10
2019-03-31T23:38:00.613Z,2.08
2019-03-31T23:40:30.987Z,1.82
2019-03-31T23:43:01.336Z,2.17
2019-03-31T23:45:32.749Z,2.55
2019-03-31T23:48:03.102Z,2.00
2019-03-31T23:50:33.472Z,1.80
2019-03-31T23:53:03.845Z,2.10
2019-03-31T23:55:34.194Z,2.08
2019-03-31T23:58:04.635Z,1.57
